createdAt,value
2019-05-17T03:37:17.161Z,12.00
2019-05-17T03:38:17.221Z,8.00
2019-05-17T03:39:16.913Z,12.00
2019-05-17T03:40:35.355Z,12.00
2019-05-17T03:41:23.286Z,12.00
2019-05-17T03:42:16.780Z,12.00
2019-05-17T03:43:16.739Z,16.00
2019-05-17T03:44:16.699Z,16.00
2019-05-17T03:45:16.670Z,20.00
2019-05-17T03:46:16.624Z,16.00
2019-05-17T03:47:16.578Z,20.00
2019-05-17T03:48:16.562Z,20.00
2019-05-17T03:49:16.495Z,20.00
2019-05-17T03:50:16.453Z,24.00
2019-05-17T03:51:16.410Z,24.00
2019-05-17T03:52:16.401Z,28.00
2019-05-17T03:53:16.333Z,28.00
2019-05-17T03:54:16.297Z,28.00
2019-05-17T03:55:16.280Z,32.00
2019-05-17T03:56:16.208Z,32.00
2019-05-17T03:57:16.167Z,36.00
2019-05-17T03:58:16.160Z,40.00
2019-05-17T03:59:16.108Z,40.00
2019-05-17T04:00:16.044Z,40.00
2019-05-17T04:01:16.012Z,44.00
2019-05-17T04:02:15.985Z,44.00
2019-05-17T04:03:15.925Z,48.00
2019-05-17T04:04:15.891Z,52.00
2019-05-17T04:05:15.849Z,52.00
2019-05-17T04:06:15.810Z,56.00
2019-05-17T04:07:15.788Z,60.00
2019-05-17T04:08:15.726Z,64.00
2019-05-17T04:09:15.687Z,64.00
2019-05-17T04:10:15.696Z,68.00
2019-05-17T04:11:25.941Z,68.00
2019-05-17T04:12:15.573Z,72.00
2019-05-17T04:13:15.530Z,72.00
2019-05-17T04:14:15.488Z,72.00
2019-05-17T04:15:15.445Z,76.00
2019-05-17T04:16:15.415Z,72.00
2019-05-17T04:17:15.366Z,68.00
2019-05-17T04:18:15.327Z,72.00
2019-05-17T04:19:15.298Z,72.00
2019-05-17T04:20:15.244Z,72.00
2019-05-17T04:21:15.207Z,72.00
2019-05-17T04:22:15.165Z,72.00
2019-05-17T04:23:16.100Z,72.00
2019-05-17T04:24:15.091Z,76.00
2019-05-17T04:25:15.048Z,72.00
2019-05-17T04:26:15.009Z,76.00
2019-05-17T04:27:14.970Z,84.00
2019-05-17T04:28:14.928Z,88.00
2019-05-17T04:29:14.890Z,92.00
2019-05-17T04:30:14.849Z,92.00
2019-05-17T04:31:14.812Z,96.00
2019-05-17T04:32:14.797Z,96.00
2019-05-17T04:33:14.751Z,100.00
2019-05-17T04:34:14.688Z,104.00
2019-05-17T04:35:14.647Z,104.00
2019-05-17T04:36:14.610Z,108.00
2019-05-17T04:37:14.572Z,116.00
2019-05-17T04:38:14.531Z,124.00
2019-05-17T04:39:14.508Z,124.00
2019-05-17T04:40:14.811Z,140.00
2019-05-17T04:41:14.416Z,152.00
2019-05-17T04:42:14.371Z,152.00
2019-05-17T04:43:14.334Z,160.00
2019-05-17T04:44:14.303Z,172.00
2019-05-17T04:45:14.251Z,184.00
2019-05-17T04:46:14.210Z,188.00
2019-05-17T04:47:14.167Z,192.00
2019-05-17T04:48:14.143Z,196.00
2019-05-17T04:49:14.164Z,196.00
2019-05-17T04:50:14.305Z,200.00
2019-05-17T04:51:14.014Z,192.00
2019-05-17T04:52:14.065Z,192.00
2019-05-17T04:53:13.937Z,196.00
2019-05-17T04:54:14.125Z,208.00
2019-05-17T04:55:14.118Z,232.00
2019-05-17T04:56:14.280Z,240.00
2019-05-17T04:57:13.779Z,256.00
2019-05-17T04:58:13.893Z,260.00
2019-05-17T04:59:14.111Z,264.00
2019-05-17T05:00:13.789Z,280.00
2019-05-17T05:01:13.614Z,300.00
2019-05-17T05:02:13.576Z,312.00
2019-05-17T05:03:13.536Z,312.00
2019-05-17T05:04:15.417Z,324.00
2019-05-17T05:05:13.962Z,332.00
2019-05-17T05:06:13.633Z,344.00
2019-05-17T05:07:13.834Z,336.00
2019-05-17T05:08:13.339Z,320.00
2019-05-17T05:09:13.302Z,320.00
2019-05-17T05:10:13.758Z,324.00
2019-05-17T05:11:13.216Z,320.00
2019-05-17T05:12:13.171Z,312.00
2019-05-17T05:13:13.417Z,312.00
2019-05-17T05:14:13.096Z,320.00
2019-05-17T05:15:13.059Z,316.00
2019-05-17T05:16:13.439Z,328.00
2019-05-17T05:17:13.086Z,352.00
2019-05-17T05:18:13.422Z,376.00
2019-05-17T05:19:13.115Z,388.00
2019-05-17T05:20:13.529Z,396.00
2019-05-17T05:21:12.822Z,420.00
2019-05-17T05:22:14.313Z,440.00
2019-05-17T05:23:13.080Z,456.00
2019-05-17T05:24:12.694Z,464.00
2019-05-17T05:25:12.767Z,444.00
2019-05-17T05:26:12.618Z,472.00
2019-05-17T05:27:12.578Z,492.00
2019-05-17T05:28:12.541Z,492.00
2019-05-17T05:29:12.868Z,516.00
2019-05-17T05:30:12.585Z,524.00
2019-05-17T05:31:13.334Z,500.00
2019-05-17T05:32:12.384Z,508.00
2019-05-17T05:33:12.875Z,532.00
2019-05-17T05:34:12.448Z,524.00
2019-05-17T05:35:12.629Z,532.00
2019-05-17T05:36:12.219Z,524.00
2019-05-17T05:37:12.552Z,524.00
2019-05-17T05:38:13.015Z,572.00
2019-05-17T05:39:12.103Z,580.00
2019-05-17T05:40:12.731Z,564.00
2019-05-17T05:41:12.262Z,556.00
2019-05-17T05:42:13.942Z,564.00
2019-05-17T05:43:12.178Z,568.00
2019-05-17T05:44:12.211Z,580.00
2019-05-17T05:45:12.188Z,580.00
2019-05-17T05:46:11.861Z,584.00
2019-05-17T05:47:11.799Z,588.00
2019-05-17T05:48:12.808Z,588.00
2019-05-17T05:49:12.415Z,588.00
2019-05-17T05:50:12.485Z,612.00
2019-05-17T05:51:13.703Z,604.00
2019-05-17T05:52:12.526Z,568.00
2019-05-17T05:53:12.851Z,520.00
2019-05-17T05:54:12.260Z,520.00
2019-05-17T05:55:12.255Z,556.00
2019-05-17T05:56:13.361Z,596.00
2019-05-17T05:57:12.647Z,608.00
2019-05-17T05:58:12.061Z,600.00
2019-05-17T05:59:12.056Z,580.00
2019-05-17T06:00:12.698Z,576.00
2019-05-17T06:01:12.768Z,580.00
2019-05-17T06:02:12.308Z,568.00
2019-05-17T06:03:12.107Z,544.00
2019-05-17T06:04:11.761Z,500.00
2019-05-17T06:05:14.703Z,480.00
2019-05-17T06:06:12.324Z,480.00
2019-05-17T06:07:12.719Z,484.00
2019-05-17T06:08:12.287Z,484.00
2019-05-17T06:09:12.060Z,528.00
2019-05-17T06:10:12.884Z,560.00
2019-05-17T06:11:21.476Z,580.00
2019-05-17T06:13:15.255Z,588.00
2019-05-17T06:14:23.823Z,592.00
2019-05-17T06:16:28.653Z,532.00
2019-05-17T06:17:21.511Z,568.00
2019-05-17T06:18:28.113Z,568.00
2019-05-17T06:20:32.927Z,620.00
2019-05-17T06:21:23.827Z,696.00
2019-05-17T06:22:23.789Z,724.00
2019-05-17T06:23:23.751Z,760.00
2019-05-17T06:24:23.702Z,772.00
2019-05-17T06:25:23.660Z,772.00
2019-05-17T06:26:23.858Z,752.00
2019-05-17T06:27:23.593Z,728.00
2019-05-17T06:28:23.551Z,744.00
2019-05-17T06:29:23.508Z,760.00
2019-05-17T06:30:23.462Z,764.00
2019-05-17T06:31:24.069Z,824.00
2019-05-17T06:32:23.384Z,840.00
2019-05-17T06:33:30.593Z,852.00
2019-05-17T06:34:23.310Z,848.00
2019-05-17T06:35:23.278Z,816.00
2019-05-17T06:36:23.228Z,740.00
2019-05-17T06:37:23.191Z,752.00
2019-05-17T06:38:23.146Z,836.00
2019-05-17T06:39:23.110Z,892.00
2019-05-17T06:40:23.071Z,916.00
2019-05-17T06:41:23.028Z,932.00
2019-05-17T06:42:36.993Z,932.00
2019-05-17T06:43:22.947Z,896.00
2019-05-17T06:44:22.908Z,840.00
2019-05-17T06:45:22.868Z,848.00
2019-05-17T06:46:32.494Z,876.00
2019-05-17T06:48:27.257Z,960.00
2019-05-17T06:49:27.181Z,932.00
2019-05-17T06:50:27.145Z,876.00
2019-05-17T06:51:27.110Z,868.00
2019-05-17T06:52:27.103Z,932.00
2019-05-17T06:53:27.031Z,1004.00
2019-05-17T06:54:26.983Z,1032.00
2019-05-17T06:55:26.940Z,1032.00
2019-05-17T06:56:26.903Z,1024.00
2019-05-17T06:57:26.870Z,968.00
2019-05-17T06:58:26.825Z,1036.00
2019-05-17T06:59:26.794Z,1020.00
2019-05-17T07:00:26.747Z,968.00
2019-05-17T07:01:26.708Z,1008.00
2019-05-17T07:02:26.674Z,1008.00
2019-05-17T07:03:26.624Z,988.00
2019-05-17T07:04:26.600Z,1032.00
2019-05-17T07:05:26.556Z,1012.00
2019-05-17T07:06:26.513Z,972.00
2019-05-17T07:07:26.467Z,984.00
2019-05-17T07:08:26.429Z,988.00
2019-05-17T07:09:26.389Z,956.00
2019-05-17T07:10:26.354Z,960.00
2019-05-17T07:11:26.314Z,1056.00
2019-05-17T07:12:26.274Z,1052.00
2019-05-17T07:13:26.236Z,1008.00
2019-05-17T07:14:26.192Z,1028.00
2019-05-17T07:15:26.154Z,1088.00
2019-05-17T07:16:26.111Z,1172.00
2019-05-17T07:17:26.073Z,1268.00
2019-05-17T07:18:26.035Z,1240.00
2019-05-17T07:19:25.999Z,1216.00
2019-05-17T07:20:25.952Z,1136.00
2019-05-17T07:21:25.917Z,1092.00
2019-05-17T07:22:25.877Z,1108.00
2019-05-17T07:23:25.838Z,1120.00
2019-05-17T07:24:25.799Z,1184.00
2019-05-17T07:25:25.758Z,1248.00
2019-05-17T07:26:25.716Z,1276.00
2019-05-17T07:27:37.992Z,1264.00
2019-05-17T07:28:25.638Z,1216.00
2019-05-17T07:29:25.597Z,1240.00
2019-05-17T07:30:25.565Z,1232.00
2019-05-17T07:31:25.524Z,1184.00
2019-05-17T07:32:25.485Z,1104.00
2019-05-17T07:33:25.443Z,1060.00
2019-05-17T07:34:25.403Z,992.00
2019-05-17T07:35:25.361Z,968.00
2019-05-17T07:36:25.327Z,996.00
2019-05-17T07:37:25.286Z,1008.00
2019-05-17T07:38:25.245Z,968.00
2019-05-17T07:39:25.206Z,1000.00
2019-05-17T07:40:25.165Z,1060.00
2019-05-17T07:41:25.124Z,1080.00
2019-05-17T07:42:25.089Z,1112.00
2019-05-17T07:43:25.051Z,1200.00
2019-05-17T07:44:25.009Z,1364.00
2019-05-17T07:45:24.969Z,1456.00
2019-05-17T07:46:24.925Z,1512.00
2019-05-17T07:47:24.891Z,1496.00
2019-05-17T07:48:24.853Z,1476.00
2019-05-17T07:49:24.812Z,1472.00
2019-05-17T07:50:24.778Z,1564.00
2019-05-17T07:51:24.734Z,1692.00
2019-05-17T07:52:24.690Z,1680.00
2019-05-17T07:53:24.648Z,1656.00
2019-05-17T07:54:24.615Z,1696.00
2019-05-17T07:55:24.575Z,1812.00
2019-05-17T07:56:24.535Z,1836.00
2019-05-17T07:57:24.497Z,1832.00
2019-05-17T07:58:24.451Z,1812.00
2019-05-17T07:59:24.416Z,1700.00
2019-05-17T08:00:24.376Z,1732.00
2019-05-17T08:01:24.333Z,1780.00
2019-05-17T08:02:24.299Z,1736.00
2019-05-17T08:03:25.016Z,1752.00
2019-05-17T08:04:24.220Z,1856.00
2019-05-17T08:05:24.183Z,1984.00
2019-05-17T08:06:24.142Z,1872.00
2019-05-17T08:07:24.101Z,1892.00
2019-05-17T08:08:24.063Z,2036.00
2019-05-17T08:09:24.023Z,1980.00
2019-05-17T08:10:23.978Z,2136.00
2019-05-17T08:11:23.945Z,2192.00
2019-05-17T08:12:23.903Z,2256.00
2019-05-17T08:13:29.972Z,2108.00
2019-05-17T08:14:30.112Z,2224.00
2019-05-17T08:15:23.785Z,2120.00
2019-05-17T08:16:23.746Z,2020.00
2019-05-17T08:17:23.708Z,1932.00
2019-05-17T08:18:23.665Z,1988.00
2019-05-17T08:19:23.628Z,1984.00
2019-05-17T08:20:23.588Z,1960.00
2019-05-17T08:21:23.550Z,1912.00
2019-05-17T08:22:23.515Z,1896.00
2019-05-17T08:23:23.472Z,1872.00
2019-05-17T08:24:23.440Z,1900.00
2019-05-17T08:25:23.389Z,1908.00
2019-05-17T08:26:23.362Z,1928.00
2019-05-17T08:27:23.317Z,1952.00
2019-05-17T08:28:23.276Z,1928.00
2019-05-17T08:29:23.238Z,1928.00
2019-05-17T08:30:23.194Z,2020.00
2019-05-17T08:31:23.166Z,2080.00
2019-05-17T08:32:23.122Z,2216.00
2019-05-17T08:33:23.076Z,2252.00
2019-05-17T08:34:23.042Z,2252.00
2019-05-17T08:35:23.002Z,2232.00
2019-05-17T08:36:22.963Z,2208.00
2019-05-17T08:37:22.930Z,2144.00
2019-05-17T08:38:22.883Z,2188.00
2019-05-17T08:39:22.844Z,2280.00
2019-05-17T08:40:22.806Z,2412.00
2019-05-17T08:41:22.771Z,2372.00
2019-05-17T08:42:22.727Z,2324.00
2019-05-17T08:43:22.687Z,2428.00
2019-05-17T08:44:22.647Z,2688.00
2019-05-17T08:45:22.609Z,2716.00
2019-05-17T08:46:22.577Z,2652.00
2019-05-17T08:47:22.534Z,2532.00
2019-05-17T08:48:22.500Z,2492.00
2019-05-17T08:49:22.459Z,2644.00
2019-05-17T08:50:22.411Z,2732.00
2019-05-17T08:51:22.378Z,2720.00
2019-05-17T08:52:22.335Z,2804.00
2019-05-17T08:53:22.296Z,3012.00
2019-05-17T08:54:22.261Z,3120.00
2019-05-17T08:55:22.221Z,3096.00
2019-05-17T08:56:22.185Z,3128.00
2019-05-17T08:57:22.139Z,3280.00
2019-05-17T08:58:22.104Z,3472.00
2019-05-17T08:59:22.064Z,3556.00
2019-05-17T09:00:22.032Z,3556.00
2019-05-17T09:01:21.991Z,3640.00
2019-05-17T09:02:21.944Z,3824.00
2019-05-17T09:03:21.909Z,4056.00
2019-05-17T09:04:21.869Z,4232.00
2019-05-17T09:05:21.827Z,4388.00
2019-05-17T09:06:21.801Z,4512.00
2019-05-17T09:07:21.757Z,4464.00
2019-05-17T09:08:21.717Z,4700.00
2019-05-17T09:09:21.678Z,5028.00
2019-05-17T09:10:21.633Z,5360.00
2019-05-17T09:11:21.597Z,5588.00
2019-05-17T09:12:21.559Z,6020.00
2019-05-17T09:13:21.526Z,5944.00
2019-05-17T09:14:21.554Z,5612.00
2019-05-17T09:15:21.443Z,5444.00
2019-05-17T09:16:21.411Z,5320.00
2019-05-17T09:17:21.363Z,5868.00
2019-05-17T09:18:21.330Z,6696.00
2019-05-17T09:19:21.289Z,6948.00
2019-05-17T09:20:21.251Z,7324.00
2019-05-17T09:21:21.969Z,7276.00
2019-05-17T09:22:21.170Z,7316.00
2019-05-17T09:23:21.134Z,6908.00
2019-05-17T09:24:21.098Z,6788.00
2019-05-17T09:25:22.113Z,6492.00
2019-05-17T09:26:21.022Z,5624.00
2019-05-17T09:27:20.985Z,5216.00
2019-05-17T09:28:20.945Z,5152.00
2019-05-17T09:29:20.902Z,4804.00
2019-05-17T09:30:20.875Z,4388.00
2019-05-17T09:31:20.832Z,4112.00
2019-05-17T09:32:20.793Z,3840.00
2019-05-17T09:33:20.757Z,3836.00
2019-05-17T09:34:20.717Z,3828.00
2019-05-17T09:35:20.900Z,3516.00
2019-05-17T09:36:20.657Z,3720.00
2019-05-17T09:50:51.791Z,4336.00
2019-05-17T09:51:51.766Z,4304.00
2019-05-17T09:52:51.680Z,4104.00
2019-05-17T09:53:51.638Z,4028.00
2019-05-17T09:54:51.596Z,4068.00
2019-05-17T09:55:51.556Z,4432.00
2019-05-17T09:56:51.511Z,4520.00
2019-05-17T09:57:51.472Z,4420.00
2019-05-17T09:58:51.434Z,4468.00
2019-05-17T09:59:51.390Z,4612.00
2019-05-17T10:00:51.365Z,4888.00
2019-05-17T10:01:51.314Z,4796.00
2019-05-17T10:02:51.275Z,4796.00
2019-05-17T10:03:51.258Z,4864.00
2019-05-17T10:04:51.201Z,5136.00
2019-05-17T10:05:51.159Z,5248.00
2019-05-17T10:06:51.298Z,5352.00
2019-05-17T10:07:51.085Z,5552.00
2019-05-17T10:08:51.039Z,5464.00
2019-05-17T10:09:51.006Z,5300.00
2019-05-17T10:11:04.807Z,5016.00
2019-05-17T10:11:50.928Z,4912.00
2019-05-17T10:12:50.890Z,4940.00
2019-05-17T10:13:50.854Z,4968.00
2019-05-17T10:14:50.811Z,4840.00
2019-05-17T10:15:50.778Z,4824.00
2019-05-17T10:16:50.733Z,4860.00
2019-05-17T10:17:50.699Z,4984.00
2019-05-17T10:18:50.661Z,5040.00
2019-05-17T10:19:50.627Z,4988.00
2019-05-17T10:20:50.771Z,4952.00
2019-05-17T10:21:50.545Z,4948.00
2019-05-17T10:22:50.628Z,4928.00
2019-05-17T10:23:50.467Z,4736.00
2019-05-17T10:24:50.436Z,4608.00
2019-05-17T10:25:50.395Z,4224.00
2019-05-17T10:26:50.361Z,3904.00
2019-05-17T10:27:50.325Z,3856.00
2019-05-17T10:28:51.644Z,3820.00
2019-05-17T10:29:50.285Z,4084.00
2019-05-17T10:30:52.180Z,4468.00
2019-05-17T10:31:50.446Z,4508.00
2019-05-17T10:32:50.665Z,4464.00
2019-05-17T10:33:50.102Z,4608.00
2019-05-17T10:34:50.056Z,4616.00
2019-05-17T10:35:50.017Z,4412.00
2019-05-17T10:36:50.681Z,3988.00
2019-05-17T10:37:50.521Z,3772.00
2019-05-17T10:38:50.216Z,3768.00
2019-05-17T10:39:50.227Z,4392.00
2019-05-17T10:40:50.186Z,4752.00
2019-05-17T10:41:50.099Z,5044.00
2019-05-17T10:42:50.029Z,5096.00
2019-05-17T10:43:50.135Z,5268.00
2019-05-17T10:44:51.429Z,5196.00
2019-05-17T10:45:49.645Z,4972.00
2019-05-17T10:46:49.608Z,5048.00
2019-05-17T10:47:50.349Z,4792.00
2019-05-17T10:48:50.064Z,4124.00
2019-05-17T10:49:49.690Z,3452.00
2019-05-17T10:50:49.716Z,3052.00
2019-05-17T10:51:49.526Z,2724.00
2019-05-17T10:52:49.400Z,2424.00
2019-05-17T10:53:51.241Z,2264.00
2019-05-17T10:54:49.330Z,2352.00
2019-05-17T10:55:49.796Z,2360.00
2019-05-17T10:56:50.227Z,2452.00
2019-05-17T10:57:49.977Z,2528.00
2019-05-17T10:58:49.332Z,2852.00
2019-05-17T10:59:49.891Z,3296.00
2019-05-17T11:00:50.147Z,3600.00
2019-05-17T11:01:50.180Z,3768.00
2019-05-17T11:02:50.340Z,3548.00
2019-05-17T11:03:50.254Z,3320.00
2019-05-17T11:04:50.641Z,3228.00
2019-05-17T11:05:50.278Z,3208.00
2019-05-17T11:06:50.080Z,3352.00
2019-05-17T11:07:50.408Z,3760.00
2019-05-17T11:08:50.131Z,4336.00
2019-05-17T11:09:50.984Z,4680.00
2019-05-17T11:10:50.088Z,4756.00
2019-05-17T11:11:48.678Z,4608.00
2019-05-17T11:12:48.653Z,4536.00
2019-05-17T11:13:48.607Z,4452.00
2019-05-17T11:14:55.938Z,4512.00
2019-05-17T11:15:48.539Z,4592.00
2019-05-17T11:16:48.493Z,4792.00
2019-05-17T11:17:48.458Z,5072.00
2019-05-17T11:18:48.422Z,5268.00
2019-05-17T11:19:48.381Z,5272.00
2019-05-17T11:20:48.353Z,5184.00
2019-05-17T11:21:48.315Z,5084.00
2019-05-17T11:22:48.274Z,4964.00
2019-05-17T11:23:48.266Z,4844.00
2019-05-17T11:24:48.204Z,4668.00
2019-05-17T11:25:48.172Z,4548.00
2019-05-17T11:26:48.127Z,4520.00
2019-05-17T11:27:48.093Z,4528.00
2019-05-17T11:28:48.065Z,4616.00
2019-05-17T11:29:48.020Z,4704.00
2019-05-17T11:30:47.983Z,4588.00
2019-05-17T11:31:47.946Z,4376.00
2019-05-17T11:32:47.912Z,4236.00
2019-05-17T11:33:47.873Z,4164.00
2019-05-17T11:34:47.835Z,4156.00
2019-05-17T11:35:47.800Z,4204.00
2019-05-17T11:36:47.758Z,4360.00
2019-05-17T11:37:47.723Z,4636.00
2019-05-17T11:38:47.688Z,5004.00
2019-05-17T11:39:47.654Z,5416.00
2019-05-17T11:40:49.888Z,5700.00
2019-05-17T11:41:47.579Z,5808.00
2019-05-17T11:42:47.541Z,5816.00
2019-05-17T11:43:47.509Z,5772.00
2019-05-17T11:44:47.474Z,5796.00
2019-05-17T11:45:47.434Z,5816.00
2019-05-17T11:46:47.406Z,5732.00
2019-05-17T11:47:47.365Z,5628.00
2019-05-17T11:48:47.327Z,5560.00
2019-05-17T11:49:47.287Z,5372.00
2019-05-17T11:50:47.250Z,5164.00
2019-05-17T11:51:47.212Z,4836.00
2019-05-17T11:52:47.182Z,4624.00
2019-05-17T11:53:47.149Z,4636.00
2019-05-17T11:54:47.105Z,4672.00
2019-05-17T11:55:47.071Z,4340.00
2019-05-17T11:56:47.037Z,4148.00
2019-05-17T11:57:47.000Z,4272.00
2019-05-17T11:58:46.963Z,4528.00
2019-05-17T11:59:46.928Z,4928.00
2019-05-17T12:00:46.902Z,5152.00
2019-05-17T12:01:46.854Z,5160.00
2019-05-17T12:02:46.824Z,5268.00
2019-05-17T12:03:46.778Z,5268.00
2019-05-17T12:04:46.748Z,5284.00
2019-05-17T12:05:46.717Z,5348.00
2019-05-17T12:06:46.675Z,5492.00
2019-05-17T12:07:46.640Z,5696.00
2019-05-17T12:08:46.600Z,5896.00
2019-05-17T12:09:46.570Z,6028.00
2019-05-17T12:10:46.631Z,5924.00
2019-05-17T12:11:46.497Z,5864.00
2019-05-17T12:12:46.467Z,5924.00
2019-05-17T12:13:46.422Z,5952.00
2019-05-17T12:14:46.385Z,5936.00
2019-05-17T12:15:46.364Z,5928.00
2019-05-17T12:16:46.318Z,5804.00
2019-05-17T12:17:46.280Z,5688.00
2019-05-17T12:18:46.246Z,5496.00
2019-05-17T12:19:46.210Z,5312.00
2019-05-17T12:20:46.180Z,5280.00
2019-05-17T12:21:46.136Z,5304.00
2019-05-17T12:22:46.101Z,5260.00
2019-05-17T12:23:46.061Z,5276.00
2019-05-17T12:24:46.031Z,5368.00
2019-05-17T12:25:46.048Z,5536.00
2019-05-17T12:26:47.579Z,5664.00
2019-05-17T12:27:45.918Z,5772.00
2019-05-17T12:28:45.889Z,5836.00
2019-05-17T12:29:45.862Z,5824.00
2019-05-17T12:30:45.816Z,5628.00
2019-05-17T12:31:45.786Z,5308.00
2019-05-17T12:32:45.741Z,5036.00
2019-05-17T12:33:45.707Z,4900.00
2019-05-17T12:34:45.675Z,4896.00
2019-05-17T12:35:45.636Z,4972.00
2019-05-17T12:36:45.606Z,5068.00
2019-05-17T12:37:45.569Z,5244.00
2019-05-17T12:38:45.532Z,5324.00
2019-05-17T12:39:45.509Z,5376.00
2019-05-17T12:40:45.461Z,5408.00
2019-05-17T12:41:45.442Z,5480.00
2019-05-17T12:42:45.394Z,5576.00
2019-05-17T12:43:45.356Z,5516.00
2019-05-17T12:44:45.317Z,5552.00
2019-05-17T12:45:59.344Z,5764.00
2019-05-17T12:46:45.246Z,6028.00
2019-05-17T12:47:45.209Z,6116.00
2019-05-17T12:48:45.179Z,6016.00
2019-05-17T12:49:45.142Z,5836.00
2019-05-17T12:50:45.106Z,5784.00
2019-05-17T12:51:45.076Z,5820.00
2019-05-17T12:52:45.035Z,5912.00
2019-05-17T12:53:45.000Z,5708.00
2019-05-17T12:54:44.974Z,5640.00
2019-05-17T12:55:44.927Z,5676.00
2019-05-17T12:56:44.897Z,5716.00
2019-05-17T12:57:44.860Z,5788.00
2019-05-17T12:58:44.825Z,5912.00
2019-05-17T12:59:44.786Z,5940.00
2019-05-17T13:00:44.763Z,6016.00
2019-05-17T13:01:44.731Z,6184.00
2019-05-17T13:02:44.685Z,6284.00
2019-05-17T13:03:44.650Z,6200.00
2019-05-17T13:04:44.611Z,6052.00
2019-05-17T13:05:44.581Z,5948.00
2019-05-17T13:06:44.597Z,5932.00
2019-05-17T13:07:44.506Z,5924.00
2019-05-17T13:08:44.477Z,5896.00
2019-05-17T13:09:44.451Z,5880.00
2019-05-17T13:10:44.405Z,5904.00
2019-05-17T13:11:44.374Z,5964.00
2019-05-17T13:12:44.354Z,5988.00
2019-05-17T13:13:44.302Z,6104.00
2019-05-17T13:14:44.264Z,6244.00
2019-05-17T13:15:44.236Z,6416.00
2019-05-17T13:16:44.190Z,6352.00
2019-05-17T13:17:44.158Z,6240.00
2019-05-17T13:18:44.124Z,6260.00
2019-05-17T13:19:44.086Z,6156.00
2019-05-17T13:20:44.057Z,5944.00
2019-05-17T13:21:44.021Z,5952.00
2019-05-17T13:22:43.986Z,5728.00
2019-05-17T13:23:43.951Z,5676.00
2019-05-17T13:24:43.911Z,5588.00
2019-05-17T13:25:43.956Z,5480.00
2019-05-17T13:26:43.844Z,5420.00
2019-05-17T13:27:43.808Z,5344.00
2019-05-17T13:28:43.862Z,5232.00
2019-05-17T13:29:43.743Z,5108.00
2019-05-17T13:30:43.789Z,5008.00
2019-05-17T13:31:43.671Z,4868.00
2019-05-17T13:32:52.303Z,4804.00
2019-05-17T13:34:48.918Z,4732.00
2019-05-17T13:35:58.578Z,4780.00
2019-05-17T13:38:03.803Z,4704.00
2019-05-17T13:39:02.879Z,4648.00
2019-05-17T13:41:20.197Z,4760.00
2019-05-17T13:42:19.978Z,4652.00
2019-05-17T13:44:16.637Z,4404.00
2019-05-17T13:45:16.647Z,4428.00
2019-05-17T13:46:16.536Z,4472.00
2019-05-17T13:47:16.503Z,4472.00
2019-05-17T13:48:16.470Z,4368.00
2019-05-17T13:49:16.439Z,4220.00
2019-05-17T13:50:16.406Z,4112.00
2019-05-17T13:51:16.365Z,4068.00
2019-05-17T13:52:16.335Z,4116.00
2019-05-17T13:53:16.311Z,4220.00
2019-05-17T13:54:16.270Z,4260.00
2019-05-17T13:55:16.224Z,4232.00
2019-05-17T13:56:16.189Z,4068.00
2019-05-17T13:57:16.159Z,3724.00
2019-05-17T13:58:16.176Z,3444.00
2019-05-17T13:59:16.087Z,3380.00
2019-05-17T14:00:24.711Z,3484.00
2019-05-17T14:02:30.510Z,3592.00
2019-05-17T14:03:29.093Z,3556.00
2019-05-17T14:05:32.519Z,3200.00
2019-05-17T14:06:33.444Z,3060.00
2019-05-17T14:08:30.056Z,2896.00
2019-05-17T14:09:30.034Z,2844.00
2019-05-17T14:10:32.085Z,2696.00
2019-05-17T14:11:29.942Z,2488.00
2019-05-17T14:12:29.906Z,2292.00
2019-05-17T14:13:29.891Z,2160.00
2019-05-17T14:14:29.837Z,2060.00
2019-05-17T14:15:29.799Z,1960.00
2019-05-17T14:16:33.932Z,1864.00
2019-05-17T14:17:29.736Z,1764.00
2019-05-17T14:18:29.707Z,1660.00
2019-05-17T14:19:29.672Z,1556.00
2019-05-17T14:20:29.627Z,1500.00
2019-05-17T14:21:29.586Z,1440.00
2019-05-17T14:22:29.552Z,1400.00
2019-05-17T14:23:29.521Z,1348.00
2019-05-17T14:24:29.486Z,1304.00
2019-05-17T14:25:29.455Z,1280.00
2019-05-17T14:26:29.429Z,1316.00
2019-05-17T14:27:29.390Z,1436.00
2019-05-17T14:28:29.355Z,1556.00
2019-05-17T14:29:29.313Z,1616.00
2019-05-17T14:30:29.281Z,1716.00
2019-05-17T14:31:29.268Z,1812.00
2019-05-17T14:32:29.203Z,1896.00
2019-05-17T14:33:29.166Z,1980.00
2019-05-17T14:34:29.133Z,2064.00
2019-05-17T14:35:29.100Z,2164.00
2019-05-17T14:36:29.090Z,2284.00
2019-05-17T14:37:29.030Z,2428.00
2019-05-17T14:38:28.996Z,2572.00
2019-05-17T14:39:28.970Z,2704.00
2019-05-17T14:41:00.658Z,2800.00
2019-05-17T14:41:28.882Z,2880.00
2019-05-17T14:42:29.086Z,2944.00
2019-05-17T14:43:31.643Z,3008.00
2019-05-17T14:44:28.812Z,3040.00
2019-05-17T14:45:28.788Z,3100.00
2019-05-17T14:46:28.780Z,3144.00
2019-05-17T14:47:28.706Z,3188.00
2019-05-17T14:48:28.702Z,3172.00
2019-05-17T14:49:28.608Z,3144.00
2019-05-17T14:50:28.649Z,3088.00
2019-05-17T14:51:28.662Z,3040.00
2019-05-17T14:52:28.512Z,3108.00
2019-05-17T14:53:28.464Z,3156.00
2019-05-17T14:54:31.381Z,3168.00
2019-05-17T14:57:12.470Z,3168.00
2019-05-17T14:58:12.567Z,3144.00
2019-05-17T14:59:26.043Z,3120.00
2019-05-17T15:00:27.886Z,3084.00
2019-05-17T15:03:24.707Z,3040.00
2019-05-17T15:04:23.598Z,3044.00
2019-05-17T15:05:30.757Z,3052.00
2019-05-17T15:08:18.165Z,2960.00
2019-05-17T15:09:15.682Z,2896.00
2019-05-17T15:10:21.074Z,2820.00
2019-05-17T15:11:15.669Z,2728.00
2019-05-17T15:12:27.197Z,2628.00
2019-05-17T15:13:14.465Z,2528.00
2019-05-17T15:14:19.946Z,2436.00
2019-05-17T15:16:19.912Z,2308.00
2019-05-17T15:18:22.742Z,2244.00
2019-05-17T15:19:23.964Z,2220.00
2019-05-17T15:20:23.761Z,2196.00
2019-05-17T15:22:23.264Z,2108.00
2019-05-17T15:35:01.166Z,1404.00
2019-05-17T15:38:40.987Z,1236.00
2019-05-17T15:39:41.043Z,1212.00
2019-05-17T15:40:41.117Z,1200.00
2019-05-17T15:41:42.885Z,1184.00
2019-05-17T15:42:44.528Z,1156.00
2019-05-17T15:43:43.820Z,1112.00
2019-05-17T15:44:41.026Z,1072.00
2019-05-17T15:49:32.211Z,928.00
2019-05-17T15:50:30.411Z,904.00
2019-05-17T15:52:36.240Z,876.00
2019-05-17T15:53:35.771Z,868.00
2019-05-17T15:54:37.715Z,856.00
2019-05-17T15:55:36.703Z,852.00
2019-05-17T15:59:24.575Z,832.00
2019-05-17T16:00:22.937Z,844.00
2019-05-17T16:01:23.025Z,860.00
2019-05-17T16:25:13.419Z,1248.00
2019-05-17T16:31:06.193Z,1120.00
2019-05-17T16:41:23.660Z,976.00
2019-05-17T16:42:14.942Z,960.00
2019-05-17T16:43:21.695Z,944.00
2019-05-17T16:44:19.083Z,932.00
2019-05-17T16:53:58.861Z,964.00
2019-05-17T16:57:02.021Z,976.00
2019-05-17T16:58:21.637Z,944.00
2019-05-17T17:00:04.248Z,880.00
2019-05-17T17:03:41.822Z,800.00
2019-05-17T17:04:07.448Z,784.00
2019-05-17T17:06:13.494Z,764.00
2019-05-17T17:08:02.662Z,736.00
2019-05-17T17:17:12.055Z,632.00
2019-05-17T17:18:06.046Z,628.00
2019-05-17T17:20:09.222Z,636.00
2019-05-17T17:28:39.016Z,632.00
2019-05-17T17:35:14.455Z,676.00
2019-05-17T17:37:06.460Z,732.00
2019-05-17T17:38:06.698Z,736.00
2019-05-17T17:40:14.098Z,700.00
2019-05-17T17:41:15.325Z,680.00
2019-05-17T17:42:17.287Z,672.00
2019-05-17T17:43:22.091Z,668.00
2019-05-17T17:44:34.203Z,664.00
2019-05-17T17:45:23.662Z,664.00
2019-05-17T17:51:27.990Z,612.00
2019-05-17T17:52:18.331Z,616.00
2019-05-17T17:55:18.812Z,584.00
2019-05-17T17:56:16.963Z,568.00
2019-05-17T17:57:16.983Z,548.00
2019-05-17T18:03:33.707Z,512.00
2019-05-17T18:03:37.394Z,516.00
2019-05-17T18:04:38.024Z,516.00
2019-05-17T18:05:38.331Z,508.00
2019-05-17T18:06:38.735Z,492.00
2019-05-17T18:16:52.077Z,392.00
2019-05-17T18:19:16.277Z,376.00
2019-05-17T18:20:17.836Z,368.00
2019-05-17T18:21:16.508Z,360.00
2019-05-17T18:24:02.299Z,340.00
2019-05-17T18:25:04.162Z,332.00
2019-05-17T18:26:02.216Z,328.00
2019-05-17T18:27:03.762Z,324.00
2019-05-17T18:36:09.072Z,252.00
2019-05-17T21:50:25.959Z,0.00